| Back to River Map | <<< Previous Forecast Point | | | Next Forecast Point >>> | Printer Version | Graph Version |  |
|
SACRAMENTO RIVER - TEHAMA BRIDGE (TEHC1)
| Latitude: 40.03º N | Longitude: 122.12º W | Elevation: 213 Feet | | Forecast Type: Official Location |
| Location: Tehama County in California | Bulletin Group: Upper Sacramento | River Group: Upper Sacramento |
| Issuance Time: | Apr 19 2026 at 8:05 AM PDT | Next Issuance: | Apr 20 2026 at 9:00 AM PDT
| |
| Action/Monitor: 206.5 Feet | Minor Flood: 209.5 Feet | Moderate Flood: 216.7 Feet | Major Flood: 217.7 Feet |
# Tabular Observed and Forecast Hydrograph Information
#
# Location: Sacramento River - Tehama Bridge (TEHC1)
#
# File Generation Time: 04/19/2026 at 08:05 AM PDT
# Data Interval: 1 Hour
#
# Most Recent Date & Time of Maximum Observed: 04/14/2026 at 08:00 AM PDT
# Maximum Observed Stage: 198.87 Feet
# Maximum Observed Flow: 9821 cfs
#
# Earliest Date & Time of Maximum Forecast: 04/22/2026 at 01:00 PM PDT
# Maximum Forecast Stage: 201.01 Feet
# Maximum Forecast Flow: 19345 cfs
#
# OBSERVED
#
# Date & Time (Local) Stage (Feet) Flow (cfs) Trend Observed Status
# ---------------------------------------------------------------------------------
04/14/2026 08 AM PDT 198.87 9821 Normal
04/14/2026 09 AM PDT 198.85 9746 - Normal
04/14/2026 10 AM PDT 198.82 9634 - Normal
04/14/2026 11 AM PDT 198.81 9597 - Normal
04/14/2026 12 PM PDT 198.79 9524 - Normal
04/14/2026 01 PM PDT 198.80 9560 + Normal
04/14/2026 02 PM PDT 198.77 9451 - Normal
04/14/2026 03 PM PDT 198.76 9415 - Normal
04/14/2026 04 PM PDT 198.73 9307 - Normal
04/14/2026 05 PM PDT 198.70 9200 - Normal
04/14/2026 06 PM PDT 198.65 9017 - Normal
04/14/2026 07 PM PDT 198.62 8909 - Normal
04/14/2026 08 PM PDT 198.57 8732 - Normal
04/14/2026 09 PM PDT 198.55 8662 - Normal
04/14/2026 10 PM PDT 198.53 8592 - Normal
04/14/2026 11 PM PDT 198.51 8524 - Normal
04/15/2026 12 AM PDT 198.51 8524 0 Normal
04/15/2026 01 AM PDT 198.50 8489 - Normal
04/15/2026 02 AM PDT 198.50 8489 0 Normal
04/15/2026 03 AM PDT 198.52 8558 + Normal
04/15/2026 04 AM PDT 198.53 8592 + Normal
04/15/2026 05 AM PDT 198.52 8558 - Normal
04/15/2026 06 AM PDT 198.51 8524 - Normal
04/15/2026 07 AM PDT 198.49 8455 - Normal
04/15/2026 08 AM PDT 198.47 8388 - Normal
04/15/2026 09 AM PDT 198.46 8354 - Normal
04/15/2026 10 AM PDT 198.45 8320 - Normal
04/15/2026 11 AM PDT 198.43 8254 - Normal
04/15/2026 12 PM PDT 198.41 8188 - Normal
04/15/2026 01 PM PDT 198.40 8155 - Normal
04/15/2026 02 PM PDT 198.39 8122 - Normal
04/15/2026 03 PM PDT 198.41 8188 + Normal
04/15/2026 04 PM PDT 198.39 8122 - Normal
04/15/2026 05 PM PDT 198.38 8089 - Normal
04/15/2026 06 PM PDT 198.34 7960 - Normal
04/15/2026 07 PM PDT 198.34 7960 0 Normal
04/15/2026 08 PM PDT 198.30 7833 - Normal
04/15/2026 09 PM PDT 198.29 7802 - Normal
04/15/2026 10 PM PDT 198.27 7739 - Normal
04/15/2026 11 PM PDT 198.26 7708 - Normal
04/16/2026 12 AM PDT 198.24 7646 - Normal
04/16/2026 01 AM PDT 198.23 7615 - Normal
04/16/2026 02 AM PDT 198.24 7646 + Normal
04/16/2026 03 AM PDT 198.25 7677 + Normal
04/16/2026 04 AM PDT 198.26 7708 + Normal
04/16/2026 05 AM PDT 198.25 7677 - Normal
04/16/2026 06 AM PDT 198.25 7677 0 Normal
04/16/2026 07 AM PDT 198.23 7615 - Normal
04/16/2026 08 AM PDT 198.22 7585 - Normal
04/16/2026 09 AM PDT 198.21 7554 - Normal
04/16/2026 10 AM PDT 198.21 7554 0 Normal
04/16/2026 11 AM PDT 198.18 7464 - Normal
04/16/2026 12 PM PDT 198.17 7434 - Normal
04/16/2026 01 PM PDT 198.18 7464 + Normal
04/16/2026 02 PM PDT 198.18 7464 0 Normal
04/16/2026 03 PM PDT 198.16 7404 - Normal
04/16/2026 04 PM PDT 198.16 7404 0 Normal
04/16/2026 05 PM PDT 198.17 7434 + Normal
04/16/2026 06 PM PDT 198.17 7434 0 Normal
04/16/2026 07 PM PDT 198.17 7434 0 Normal
04/16/2026 08 PM PDT 198.18 7464 + Normal
04/16/2026 09 PM PDT 198.17 7434 - Normal
04/16/2026 10 PM PDT 198.18 7464 + Normal
04/16/2026 11 PM PDT 198.18 7464 0 Normal
04/17/2026 12 AM PDT 198.19 7494 + Normal
04/17/2026 01 AM PDT 198.19 7494 0 Normal
04/17/2026 02 AM PDT 198.20 7524 + Normal
04/17/2026 03 AM PDT 198.21 7554 + Normal
04/17/2026 04 AM PDT 198.22 7585 + Normal
04/17/2026 05 AM PDT 198.23 7615 + Normal
04/17/2026 06 AM PDT 198.22 7585 - Normal
04/17/2026 07 AM PDT 198.24 7646 + Normal
04/17/2026 08 AM PDT 198.27 7739 + Normal
04/17/2026 09 AM PDT 198.26 7708 - Normal
04/17/2026 10 AM PDT 198.23 7615 - Normal
04/17/2026 11 AM PDT 198.22 7585 - Normal
04/17/2026 12 PM PDT 198.21 7554 - Normal
04/17/2026 01 PM PDT 198.18 7464 - Normal
04/17/2026 02 PM PDT 198.16 7404 - Normal
04/17/2026 03 PM PDT 198.15 7374 - Normal
04/17/2026 04 PM PDT 198.13 7315 - Normal
04/17/2026 05 PM PDT 198.13 7315 0 Normal
04/17/2026 06 PM PDT 198.13 7315 0 Normal
04/17/2026 07 PM PDT 198.12 7285 - Normal
04/17/2026 08 PM PDT 198.12 7285 0 Normal
04/17/2026 09 PM PDT 198.11 7256 - Normal
04/17/2026 10 PM PDT 198.11 7256 0 Normal
04/17/2026 11 PM PDT 198.11 7256 0 Normal
04/18/2026 12 AM PDT 198.11 7256 0 Normal
04/18/2026 01 AM PDT 198.11 7256 0 Normal
04/18/2026 02 AM PDT 198.11 7256 0 Normal
04/18/2026 03 AM PDT 198.12 7285 + Normal
04/18/2026 04 AM PDT 198.12 7285 0 Normal
04/18/2026 05 AM PDT 198.12 7285 0 Normal
04/18/2026 06 AM PDT 198.12 7285 0 Normal
04/18/2026 07 AM PDT 198.14 7344 + Normal
04/18/2026 08 AM PDT 198.12 7285 - Normal
04/18/2026 09 AM PDT 198.12 7285 0 Normal
04/18/2026 10 AM PDT 198.12 7285 0 Normal
04/18/2026 11 AM PDT 198.12 7285 0 Normal
04/18/2026 12 PM PDT 198.11 7256 - Normal
04/18/2026 01 PM PDT 198.10 7227 - Normal
04/18/2026 02 PM PDT 198.10 7227 0 Normal
04/18/2026 03 PM PDT 198.09 7198 - Normal
04/18/2026 04 PM PDT 198.10 7227 + Normal
04/18/2026 05 PM PDT 198.09 7198 - Normal
04/18/2026 06 PM PDT 198.09 7198 0 Normal
04/18/2026 07 PM PDT 198.09 7198 0 Normal
04/18/2026 08 PM PDT 198.10 7227 + Normal
04/18/2026 09 PM PDT 198.10 7227 0 Normal
04/18/2026 10 PM PDT 198.09 7198 - Normal
04/18/2026 11 PM PDT 198.09 7198 0 Normal
04/19/2026 12 AM PDT 198.10 7227 + Normal
04/19/2026 01 AM PDT 198.11 7256 + Normal
04/19/2026 02 AM PDT 198.12 7285 + Normal
04/19/2026 03 AM PDT 198.13 7315 + Normal
04/19/2026 04 AM PDT 198.14 7344 + Normal
04/19/2026 05 AM PDT 198.14 7344 0 Normal
04/19/2026 06 AM PDT 198.14 7344 0 Normal
04/19/2026 07 AM PDT 198.14 7344 0 Normal
#
# FORECAST
#
# Date & Time (Local) Stage (Feet) Flow (cfs) Trend Forecast Status
# ---------------------------------------------------------------------------------
04/19/2026 08 AM PDT 198.13 7315 Normal
04/19/2026 09 AM PDT 198.12 7285 - Normal
04/19/2026 10 AM PDT 198.11 7256 - Normal
04/19/2026 11 AM PDT 198.10 7227 - Normal
04/19/2026 12 PM PDT 198.10 7227 0 Normal
04/19/2026 01 PM PDT 198.09 7198 - Normal
04/19/2026 02 PM PDT 198.09 7198 0 Normal
04/19/2026 03 PM PDT 198.09 7198 0 Normal
04/19/2026 04 PM PDT 198.09 7198 0 Normal
04/19/2026 05 PM PDT 198.09 7198 0 Normal
04/19/2026 06 PM PDT 198.09 7198 0 Normal
04/19/2026 07 PM PDT 198.09 7198 0 Normal
04/19/2026 08 PM PDT 198.09 7198 0 Normal
04/19/2026 09 PM PDT 198.09 7198 0 Normal
04/19/2026 10 PM PDT 198.09 7198 0 Normal
04/19/2026 11 PM PDT 198.09 7198 0 Normal
04/20/2026 12 AM PDT 198.09 7198 0 Normal
04/20/2026 01 AM PDT 198.09 7198 0 Normal
04/20/2026 02 AM PDT 198.09 7198 0 Normal
04/20/2026 03 AM PDT 198.09 7198 0 Normal
04/20/2026 04 AM PDT 198.09 7198 0 Normal
04/20/2026 05 AM PDT 198.09 7198 0 Normal
04/20/2026 06 AM PDT 198.09 7198 0 Normal
04/20/2026 07 AM PDT 198.09 7198 0 Normal
04/20/2026 08 AM PDT 198.10 7227 + Normal
04/20/2026 09 AM PDT 198.10 7227 0 Normal
04/20/2026 10 AM PDT 198.10 7227 0 Normal
04/20/2026 11 AM PDT 198.10 7227 0 Normal
04/20/2026 12 PM PDT 198.10 7227 0 Normal
04/20/2026 01 PM PDT 198.10 7227 0 Normal
04/20/2026 02 PM PDT 198.10 7227 0 Normal
04/20/2026 03 PM PDT 198.11 7256 + Normal
04/20/2026 04 PM PDT 198.11 7256 0 Normal
04/20/2026 05 PM PDT 198.12 7285 + Normal
04/20/2026 06 PM PDT 198.12 7285 0 Normal
04/20/2026 07 PM PDT 198.13 7315 + Normal
04/20/2026 08 PM PDT 198.14 7344 + Normal
04/20/2026 09 PM PDT 198.15 7374 + Normal
04/20/2026 10 PM PDT 198.16 7404 + Normal
04/20/2026 11 PM PDT 198.17 7434 + Normal
04/21/2026 12 AM PDT 198.18 7464 + Normal
04/21/2026 01 AM PDT 198.20 7524 + Normal
04/21/2026 02 AM PDT 198.22 7585 + Normal
04/21/2026 03 AM PDT 198.24 7646 + Normal
04/21/2026 04 AM PDT 198.26 7708 + Normal
04/21/2026 05 AM PDT 198.29 7802 + Normal
04/21/2026 06 AM PDT 198.32 7896 + Normal
04/21/2026 07 AM PDT 198.37 8057 + Normal
04/21/2026 08 AM PDT 198.41 8188 + Normal
04/21/2026 09 AM PDT 198.46 8354 + Normal
04/21/2026 10 AM PDT 198.52 8558 + Normal
04/21/2026 11 AM PDT 198.58 8767 + Normal
04/21/2026 12 PM PDT 198.65 9017 + Normal
04/21/2026 01 PM PDT 198.73 9307 + Normal
04/21/2026 02 PM PDT 198.83 9671 + Normal
04/21/2026 03 PM PDT 198.93 10050 + Normal
04/21/2026 04 PM PDT 199.03 10443 + Normal
04/21/2026 05 PM PDT 199.12 10810 + Normal
04/21/2026 06 PM PDT 199.19 11105 + Normal
04/21/2026 07 PM PDT 199.27 11450 + Normal
04/21/2026 08 PM PDT 199.35 11807 + Normal
04/21/2026 09 PM PDT 199.47 12362 + Normal
04/21/2026 10 PM PDT 199.61 13043 + Normal
04/21/2026 11 PM PDT 199.80 13895 + Normal
04/22/2026 12 AM PDT 200.01 14762 + Normal
04/22/2026 01 AM PDT 200.23 15726 + Normal
04/22/2026 02 AM PDT 200.47 16850 + Normal
04/22/2026 03 AM PDT 200.60 17491 + Normal
04/22/2026 04 AM PDT 200.68 17897 + Normal
04/22/2026 05 AM PDT 200.76 18253 + Normal
04/22/2026 06 AM PDT 200.86 18682 + Normal
04/22/2026 07 AM PDT 200.92 18944 + Normal
04/22/2026 08 AM PDT 200.96 19121 + Normal
04/22/2026 09 AM PDT 200.98 19210 + Normal
04/22/2026 10 AM PDT 200.97 19166 - Normal
04/22/2026 11 AM PDT 200.99 19255 + Normal
04/22/2026 12 PM PDT 201.00 19300 + Normal
04/22/2026 01 PM PDT 201.01 19345 + Normal
04/22/2026 02 PM PDT 201.01 19345 0 Normal
04/22/2026 03 PM PDT 200.98 19210 - Normal
04/22/2026 04 PM PDT 200.93 18988 - Normal
04/22/2026 05 PM PDT 200.85 18639 - Normal
04/22/2026 06 PM PDT 200.77 18295 - Normal
04/22/2026 07 PM PDT 200.69 17948 - Normal
04/22/2026 08 PM PDT 200.64 17693 - Normal
04/22/2026 09 PM PDT 200.59 17441 - Normal
04/22/2026 10 PM PDT 200.52 17093 - Normal
04/22/2026 11 PM PDT 200.44 16705 - Normal
04/23/2026 12 AM PDT 200.36 16325 - Normal
04/23/2026 01 AM PDT 200.27 15908 - Normal
04/23/2026 02 AM PDT 200.18 15502 - Normal
04/23/2026 03 AM PDT 200.08 15062 - Normal
04/23/2026 04 AM PDT 199.99 14677 - Normal
04/23/2026 05 AM PDT 199.89 14260 - Normal
04/23/2026 06 AM PDT 199.78 13815 - Normal
04/23/2026 07 AM PDT 199.69 13448 - Normal
04/23/2026 08 AM PDT 199.62 13093 - Normal
04/23/2026 09 AM PDT 199.55 12747 - Normal
04/23/2026 10 AM PDT 199.48 12410 - Normal
04/23/2026 11 AM PDT 199.41 12082 - Normal
04/23/2026 12 PM PDT 199.36 11852 - Normal
04/23/2026 01 PM PDT 199.30 11583 - Normal
04/23/2026 02 PM PDT 199.24 11319 - Normal
04/23/2026 03 PM PDT 199.19 11105 - Normal
04/23/2026 04 PM PDT 199.14 10894 - Normal
04/23/2026 05 PM PDT 199.09 10687 - Normal
04/23/2026 06 PM PDT 199.04 10484 - Normal
04/23/2026 07 PM PDT 199.00 10324 - Normal
04/23/2026 08 PM PDT 198.97 10206 - Normal
04/23/2026 09 PM PDT 198.93 10050 - Normal
04/23/2026 10 PM PDT 198.90 9935 - Normal
04/23/2026 11 PM PDT 198.87 9821 - Normal
04/24/2026 12 AM PDT 198.85 9746 - Normal
04/24/2026 01 AM PDT 198.82 9634 - Normal
04/24/2026 02 AM PDT 198.81 9597 - Normal
04/24/2026 03 AM PDT 198.79 9524 - Normal
04/24/2026 04 AM PDT 198.78 9487 - Normal
04/24/2026 05 AM PDT 198.77 9451 - Normal
#
# NOTE 1: Stages are rounded to the nearest hundredth (.01) of a foot.
# NOTE 2: Flows are rounded to the nearest (1) cfs.
# NOTE 3: Trends are determined using hourly change in unrounded stage and flow.
# NOTE 4: Maximum Values are determined using unrounded stage and flow.
|